createdAt,value
2023-02-02T00:00:21.233Z,97.03
2023-02-02T00:02:47.629Z,97.14
2023-02-02T00:05:14.044Z,97.07
2023-02-02T00:07:40.478Z,97.32
2023-02-02T00:10:07.299Z,96.99
2023-02-02T00:12:33.721Z,97.12
2023-02-02T00:15:00.163Z,96.79
2023-02-02T00:17:26.610Z,96.95
2023-02-02T00:19:53.020Z,96.75
2023-02-02T00:22:19.490Z,96.85
2023-02-02T00:24:45.958Z,96.84
2023-02-02T00:27:12.338Z,96.96
2023-02-02T00:29:39.773Z,96.76
2023-02-02T00:32:06.260Z,96.96
2023-02-02T00:34:32.632Z,96.81
2023-02-02T00:36:59.053Z,96.98
2023-02-02T00:39:26.185Z,97.05
2023-02-02T00:41:53.231Z,97.21
2023-02-02T00:44:38.232Z,97.14
2023-02-02T00:47:05.183Z,97.38
2023-02-02T00:49:31.850Z,97.31
2023-02-02T00:51:59.053Z,97.28
2023-02-02T00:54:26.502Z,97.00
2023-02-02T00:56:52.989Z,97.17
2023-02-02T00:59:19.404Z,97.24
2023-02-02T01:01:46.359Z,97.37
2023-02-02T01:04:12.729Z,97.38
2023-02-02T01:06:39.109Z,97.48
2023-02-02T01:09:05.463Z,97.50
2023-02-02T01:11:31.928Z,97.71
2023-02-02T01:13:58.396Z,97.63
2023-02-02T01:16:24.997Z,97.55
2023-02-02T01:18:51.865Z,97.79
2023-02-02T01:21:18.687Z,97.49
2023-02-02T01:23:45.126Z,97.84
2023-02-02T01:26:13.074Z,97.41
2023-02-02T01:28:40.198Z,97.31
2023-02-02T01:31:09.037Z,97.18
2023-02-02T01:33:35.665Z,96.76
2023-02-02T01:36:06.315Z,96.69
2023-02-02T01:38:33.512Z,96.43
2023-02-02T01:41:00.262Z,96.39
2023-02-02T01:43:52.902Z,96.16
2023-02-02T01:46:21.754Z,96.00
2023-02-02T01:48:56.962Z,95.82
2023-02-02T01:51:27.758Z,96.05
2023-02-02T01:53:56.264Z,96.22
2023-02-02T01:56:29.040Z,96.22
2023-02-02T01:58:57.431Z,96.41
2023-02-02T02:01:24.588Z,96.58
2023-02-02T02:03:51.144Z,96.42
2023-02-02T02:06:19.496Z,96.94
2023-02-02T02:08:57.858Z,96.64
2023-02-02T02:11:24.856Z,96.94
2023-02-02T02:14:32.749Z,97.31
2023-02-02T02:17:25.260Z,97.46
2023-02-02T02:20:42.496Z,97.27
2023-02-02T02:23:49.198Z,97.42
2023-02-02T02:26:54.391Z,97.58
2023-02-02T02:29:44.751Z,97.88
2023-02-02T02:32:43.577Z,98.23
2023-02-02T02:35:23.653Z,98.06
2023-02-02T02:37:52.904Z,98.12
2023-02-02T02:40:32.407Z,98.37
2023-02-02T02:43:04.242Z,98.32
2023-02-02T02:45:32.173Z,98.42
2023-02-02T02:47:58.921Z,98.51
2023-02-02T02:50:25.585Z,98.67
2023-02-02T02:53:03.297Z,98.57
2023-02-02T02:55:41.608Z,98.71
2023-02-02T02:58:18.748Z,98.91
2023-02-02T03:00:57.453Z,98.85
2023-02-02T03:03:41.876Z,98.74
2023-02-02T03:06:19.637Z,98.60
2023-02-02T03:08:52.679Z,98.75
2023-02-02T03:11:20.525Z,98.48
2023-02-02T03:13:47.361Z,98.43
2023-02-02T03:16:15.616Z,98.36
2023-02-02T03:18:42.466Z,98.13
2023-02-02T03:21:09.004Z,98.12
2023-02-02T03:23:35.449Z,98.16
2023-02-02T03:26:02.013Z,97.71
2023-02-02T03:28:29.601Z,97.66
2023-02-02T03:30:59.366Z,97.56
2023-02-02T03:33:25.881Z,97.20
2023-02-02T03:35:52.651Z,97.37
2023-02-02T03:38:19.054Z,97.19
2023-02-02T03:40:45.432Z,96.79
2023-02-02T03:43:11.861Z,96.90
2023-02-02T03:45:40.655Z,96.58
2023-02-02T03:48:07.513Z,96.61
2023-02-02T03:50:34.029Z,96.56
2023-02-02T03:53:00.524Z,96.38
2023-02-02T03:55:26.959Z,96.36
2023-02-02T03:57:53.553Z,96.14
2023-02-02T04:00:20.351Z,96.03
2023-02-02T04:02:46.780Z,96.00
2023-02-02T04:05:13.171Z,95.82
2023-02-02T04:07:39.579Z,95.77
2023-02-02T04:10:06.299Z,95.32
2023-02-02T04:12:32.694Z,95.20
2023-02-02T04:14:59.145Z,95.16
2023-02-02T04:17:25.551Z,95.21
2023-02-02T04:19:57.923Z,95.04
2023-02-02T04:22:25.736Z,94.92
2023-02-02T04:24:52.146Z,94.89
2023-02-02T04:27:18.988Z,94.99
2023-02-02T04:29:45.488Z,94.90
2023-02-02T04:32:11.892Z,94.72
2023-02-02T04:34:38.313Z,94.51
2023-02-02T04:37:04.712Z,94.59
2023-02-02T04:39:31.167Z,94.41
2023-02-02T04:41:57.938Z,94.34
2023-02-02T04:44:24.494Z,94.13
2023-02-02T04:46:50.938Z,93.94
2023-02-02T04:49:17.556Z,93.62
2023-02-02T04:51:44.116Z,93.60
2023-02-02T04:54:10.557Z,93.68
2023-02-02T04:56:36.987Z,93.56
2023-02-02T04:59:03.628Z,93.37
2023-02-02T05:01:30.772Z,93.30
2023-02-02T05:03:57.437Z,93.11
2023-02-02T05:06:23.813Z,93.10
2023-02-02T05:08:50.576Z,92.79
2023-02-02T05:11:19.808Z,92.93
2023-02-02T05:13:48.381Z,92.72
2023-02-02T05:16:15.316Z,92.66
2023-02-02T05:18:42.443Z,92.67
2023-02-02T05:21:09.175Z,92.77
2023-02-02T05:23:35.706Z,93.06
2023-02-02T05:26:02.093Z,92.94
2023-02-02T05:28:29.332Z,93.27
2023-02-02T05:30:55.876Z,93.21
2023-02-02T05:33:22.331Z,93.21
2023-02-02T05:35:49.326Z,93.21
2023-02-02T05:38:16.372Z,93.31
2023-02-02T05:40:42.874Z,93.35
2023-02-02T05:43:09.274Z,93.48
2023-02-02T05:45:35.676Z,93.53
2023-02-02T05:48:02.109Z,93.58
2023-02-02T05:50:28.493Z,93.26
2023-02-02T05:52:54.896Z,93.23
2023-02-02T05:55:21.373Z,93.30
2023-02-02T05:57:47.778Z,93.38
2023-02-02T06:00:14.477Z,93.48
2023-02-02T06:02:40.906Z,93.23
2023-02-02T06:05:07.805Z,93.36
2023-02-02T06:07:34.174Z,93.91
2023-02-02T06:10:00.563Z,93.85
2023-02-02T06:12:26.986Z,94.10
2023-02-02T06:14:53.396Z,94.27
2023-02-02T06:17:19.847Z,94.49
2023-02-02T06:19:46.256Z,94.67
2023-02-02T06:22:12.670Z,94.82
2023-02-02T06:24:39.012Z,94.97
2023-02-02T06:27:05.391Z,95.05
2023-02-02T06:29:31.809Z,95.31
2023-02-02T06:31:58.400Z,95.73
2023-02-02T06:34:24.848Z,95.75
2023-02-02T06:36:51.277Z,95.74
2023-02-02T06:39:17.693Z,96.18
2023-02-02T06:41:48.160Z,96.09
2023-02-02T06:44:15.333Z,96.43
2023-02-02T06:46:42.366Z,96.58
2023-02-02T06:49:09.127Z,96.77
2023-02-02T06:51:35.601Z,97.08
2023-02-02T06:54:03.830Z,97.23
2023-02-02T06:56:30.329Z,97.24
2023-02-02T06:58:56.759Z,97.30
2023-02-02T07:01:23.229Z,97.44
2023-02-02T07:03:51.089Z,97.62
2023-02-02T07:06:20.040Z,97.69
2023-02-02T07:09:01.958Z,97.74
2023-02-02T07:11:29.700Z,98.03
2023-02-02T07:13:56.241Z,98.14
2023-02-02T07:16:22.662Z,98.11
2023-02-02T07:18:49.436Z,98.49
2023-02-02T07:21:23.737Z,98.49
2023-02-02T07:23:51.289Z,98.55
2023-02-02T07:26:19.419Z,98.72
2023-02-02T07:28:46.947Z,98.81
2023-02-02T07:31:19.689Z,99.12
2023-02-02T07:33:47.350Z,99.17
2023-02-02T07:36:16.716Z,99.05
2023-02-02T07:38:44.099Z,99.30
2023-02-02T07:41:10.634Z,99.18
2023-02-02T07:43:37.063Z,99.36
2023-02-02T07:46:07.986Z,99.14
2023-02-02T07:48:34.745Z,99.16
2023-02-02T07:51:02.594Z,99.10
2023-02-02T07:53:29.581Z,99.01
2023-02-02T07:56:15.850Z,98.95
2023-02-02T07:58:43.028Z,98.62
2023-02-02T08:01:11.555Z,98.72
2023-02-02T08:03:38.863Z,98.53
2023-02-02T08:06:15.030Z,98.53
2023-02-02T08:08:41.782Z,98.20
2023-02-02T08:11:10.292Z,97.88
2023-02-02T08:13:37.259Z,97.88
2023-02-02T08:16:04.142Z,97.60
2023-02-02T08:18:30.601Z,97.43
2023-02-02T08:21:01.067Z,97.18
2023-02-02T08:23:28.114Z,97.20
2023-02-02T08:25:55.192Z,96.87
2023-02-02T08:28:21.514Z,96.65
2023-02-02T08:30:47.923Z,96.53
2023-02-02T08:33:14.288Z,96.41
2023-02-02T08:35:44.068Z,96.40
2023-02-02T08:38:10.511Z,96.27
2023-02-02T08:40:36.975Z,96.26
2023-02-02T08:43:03.704Z,96.10
2023-02-02T08:46:01.633Z,95.61
2023-02-02T08:48:19.541Z,95.41
2023-02-02T08:50:55.450Z,95.28
2023-02-02T08:53:22.874Z,95.00
2023-02-02T08:55:57.299Z,94.96
2023-02-02T08:58:23.715Z,94.98
2023-02-02T09:00:50.161Z,94.57
2023-02-02T09:03:16.938Z,94.34
2023-02-02T09:05:44.189Z,94.06
2023-02-02T09:08:10.692Z,93.77
2023-02-02T09:10:38.055Z,93.85
2023-02-02T09:13:04.808Z,93.46
2023-02-02T09:15:31.258Z,93.21
2023-02-02T09:17:57.598Z,93.06
2023-02-02T09:20:24.066Z,93.38
2023-02-02T09:22:50.491Z,92.74
2023-02-02T09:25:17.099Z,92.38
2023-02-02T09:27:43.574Z,92.18
2023-02-02T09:30:10.511Z,92.18
2023-02-02T09:32:36.884Z,91.94
2023-02-02T09:35:03.456Z,91.87
2023-02-02T09:37:29.980Z,91.54
2023-02-02T09:39:56.369Z,91.77
2023-02-02T09:42:57.195Z,91.55
2023-02-02T09:45:49.709Z,91.61
2023-02-02T09:48:29.809Z,91.64
2023-02-02T09:51:01.111Z,91.59
2023-02-02T09:53:36.606Z,91.25
2023-02-02T09:56:11.335Z,91.37
2023-02-02T09:58:54.660Z,91.49
2023-02-02T10:01:33.939Z,91.42
2023-02-02T10:04:21.413Z,91.50
2023-02-02T10:06:53.822Z,91.38
2023-02-02T10:09:36.694Z,91.44
2023-02-02T10:12:24.192Z,91.53
2023-02-02T10:15:30.461Z,91.18
2023-02-02T10:18:23.124Z,91.00
2023-02-02T10:21:17.508Z,91.00
2023-02-02T10:23:45.649Z,91.33
2023-02-02T10:26:36.604Z,90.94
2023-02-02T10:29:19.252Z,91.03
2023-02-02T10:32:22.534Z,91.26
2023-02-02T10:35:18.610Z,91.02
2023-02-02T10:38:08.065Z,90.91
2023-02-02T10:40:37.082Z,90.86
2023-02-02T10:43:45.759Z,90.56
2023-02-02T10:46:23.633Z,90.85
2023-02-02T10:48:52.771Z,90.86
2023-02-02T10:51:28.573Z,91.13
2023-02-02T10:53:58.781Z,91.09
2023-02-02T10:56:51.991Z,91.01
2023-02-02T10:59:29.882Z,90.93
2023-02-02T11:01:56.383Z,91.05
2023-02-02T11:04:41.757Z,91.18
2023-02-02T11:07:08.260Z,90.93
2023-02-02T11:09:41.008Z,90.84
2023-02-02T11:12:19.771Z,90.70
2023-02-02T11:14:52.374Z,90.85
2023-02-02T11:17:21.825Z,90.77
2023-02-02T11:19:49.794Z,90.57
2023-02-02T11:22:26.128Z,90.48
2023-02-02T11:24:53.592Z,90.36
2023-02-02T11:27:26.373Z,90.47
2023-02-02T11:29:55.487Z,90.43
2023-02-02T11:32:31.028Z,90.42
2023-02-02T11:35:06.639Z,90.04
2023-02-02T11:37:35.690Z,89.75
2023-02-02T11:40:20.913Z,89.22
2023-02-02T11:42:48.371Z,88.59
2023-02-02T11:45:25.198Z,88.75
2023-02-02T11:47:51.821Z,88.85
2023-02-02T11:50:25.300Z,89.12
2023-02-02T11:52:52.216Z,88.41
2023-02-02T11:55:26.125Z,88.46
2023-02-02T11:58:18.378Z,88.50
2023-02-02T12:00:54.922Z,87.92
2023-02-02T12:03:27.833Z,87.84
2023-02-02T12:05:54.250Z,87.82
2023-02-02T12:08:21.006Z,87.93
2023-02-02T12:11:01.295Z,87.88
2023-02-02T12:13:40.550Z,88.03
2023-02-02T12:16:34.950Z,88.52
2023-02-02T12:19:17.145Z,88.00
2023-02-02T12:21:52.578Z,88.13
2023-02-02T12:24:29.476Z,87.89
2023-02-02T12:27:04.681Z,88.21
2023-02-02T12:30:03.741Z,88.06
2023-02-02T12:32:38.985Z,88.28
2023-02-02T12:35:14.991Z,88.35
2023-02-02T12:37:44.258Z,88.66
2023-02-02T12:40:42.476Z,88.38
2023-02-02T12:43:08.838Z,88.81
2023-02-02T12:46:04.882Z,88.82
2023-02-02T12:49:00.013Z,88.87
2023-02-02T12:51:47.646Z,89.03
2023-02-02T12:54:48.451Z,88.90
2023-02-02T12:57:28.469Z,88.92
2023-02-02T12:59:57.621Z,89.16
2023-02-02T13:02:42.223Z,89.36
2023-02-02T13:05:21.603Z,89.51
2023-02-02T13:08:04.966Z,89.62
2023-02-02T13:10:40.636Z,89.88
2023-02-02T13:13:16.768Z,90.48
2023-02-02T13:15:47.293Z,90.87
2023-02-02T13:18:16.493Z,90.99
2023-02-02T13:20:47.357Z,91.48
2023-02-02T13:23:18.397Z,91.77
2023-02-02T13:25:58.069Z,92.24
2023-02-02T13:28:46.471Z,92.72
2023-02-02T13:31:24.778Z,92.75
2023-02-02T13:34:22.800Z,93.37
2023-02-02T13:37:02.525Z,93.51
2023-02-02T13:39:36.228Z,93.75
2023-02-02T13:42:05.117Z,93.96
2023-02-02T13:44:43.709Z,94.09
2023-02-02T13:47:34.891Z,94.45
2023-02-02T13:50:07.580Z,94.55
2023-02-02T13:53:29.617Z,94.90
2023-02-02T13:56:27.120Z,95.17
2023-02-02T13:59:20.999Z,95.34
2023-02-02T14:01:50.002Z,95.48
2023-02-02T14:04:29.078Z,95.66
2023-02-02T14:07:05.094Z,95.85
2023-02-02T14:09:34.441Z,96.21
2023-02-02T14:12:08.676Z,96.18
2023-02-02T14:14:38.788Z,96.52
2023-02-02T14:17:34.444Z,96.66
2023-02-02T14:20:02.433Z,96.90
2023-02-02T14:22:41.261Z,96.74
2023-02-02T14:25:33.293Z,96.88
2023-02-02T14:28:00.768Z,96.92
2023-02-02T14:30:30.162Z,96.89
2023-02-02T14:33:22.291Z,97.18
2023-02-02T14:35:49.704Z,97.24
2023-02-02T14:38:22.077Z,97.29
2023-02-02T14:41:38.342Z,97.42
2023-02-02T14:44:06.241Z,97.49
2023-02-02T14:46:36.226Z,97.77
2023-02-02T14:49:02.602Z,97.74
2023-02-02T14:51:32.507Z,97.73
2023-02-02T14:54:02.515Z,97.98
2023-02-02T14:56:54.397Z,97.84
2023-02-02T14:59:37.320Z,98.05
2023-02-02T15:02:20.386Z,97.97
2023-02-02T15:04:49.401Z,98.14
2023-02-02T15:07:37.196Z,98.25
2023-02-02T15:10:04.174Z,98.23
2023-02-02T15:12:39.812Z,98.23
2023-02-02T15:15:19.117Z,98.40
2023-02-02T15:17:53.799Z,98.47
2023-02-02T15:20:26.224Z,98.56
2023-02-02T15:22:58.194Z,98.80
2023-02-02T15:25:39.902Z,98.54
2023-02-02T15:28:46.484Z,98.81
2023-02-02T15:31:25.129Z,98.88
2023-02-02T15:33:55.399Z,98.87
2023-02-02T15:36:26.193Z,99.02
2023-02-02T15:38:56.368Z,98.94
2023-02-02T15:41:27.925Z,98.80
2023-02-02T15:43:54.274Z,98.93
2023-02-02T15:46:26.163Z,98.88
2023-02-02T15:49:33.713Z,98.82
2023-02-02T15:52:10.034Z,98.80
2023-02-02T15:54:39.834Z,98.76
2023-02-02T15:57:31.145Z,98.81
2023-02-02T15:59:59.178Z,98.60
2023-02-02T16:02:35.736Z,98.91
2023-02-02T16:05:02.309Z,98.84
2023-02-02T16:07:31.852Z,99.04
2023-02-02T16:10:04.245Z,99.03
2023-02-02T16:12:31.003Z,98.89
2023-02-02T16:14:57.548Z,99.07
2023-02-02T16:17:29.674Z,99.03
2023-02-02T16:20:15.850Z,99.06
2023-02-02T16:22:45.161Z,98.82
2023-02-02T16:25:17.012Z,98.94
2023-02-02T16:27:47.142Z,99.11
2023-02-02T16:30:28.064Z,98.81
2023-02-02T16:32:54.697Z,99.06
2023-02-02T16:35:37.593Z,98.97
2023-02-02T16:38:31.439Z,99.26
2023-02-02T16:41:09.614Z,99.03
2023-02-02T16:43:43.339Z,98.88
2023-02-02T16:46:12.679Z,99.02
2023-02-02T16:48:42.541Z,99.01
2023-02-02T16:51:15.118Z,99.13
2023-02-02T16:53:44.855Z,98.94
2023-02-02T16:56:28.899Z,99.04
2023-02-02T16:58:58.076Z,98.72
2023-02-02T17:01:40.737Z,99.06
2023-02-02T17:04:17.245Z,98.87
2023-02-02T17:06:52.455Z,99.09
2023-02-02T17:09:36.383Z,99.10
2023-02-02T17:12:35.336Z,99.01
2023-02-02T17:15:29.022Z,98.95
2023-02-02T17:17:55.975Z,98.96
2023-02-02T17:20:23.002Z,99.11
2023-02-02T17:22:53.220Z,98.92
2023-02-02T17:25:41.855Z,98.94
2023-02-02T17:28:17.741Z,99.32
2023-02-02T17:30:47.239Z,99.15
2023-02-02T17:33:17.890Z,99.17
2023-02-02T17:35:55.636Z,99.03
2023-02-02T17:38:24.556Z,99.00
2023-02-02T17:40:51.568Z,98.98
2023-02-02T17:43:18.043Z,99.04
2023-02-02T17:45:44.493Z,99.01
2023-02-02T17:48:14.448Z,98.92
2023-02-02T17:50:41.915Z,99.12
2023-02-02T17:53:13.178Z,99.02
2023-02-02T17:55:42.007Z,99.05
2023-02-02T17:58:10.462Z,99.17
2023-02-02T18:00:38.511Z,99.04
2023-02-02T18:03:14.148Z,99.23
2023-02-02T18:05:43.224Z,99.13
2023-02-02T18:08:12.063Z,99.07
2023-02-02T18:10:38.821Z,98.92
2023-02-02T18:13:05.862Z,98.89
2023-02-02T18:15:32.383Z,98.66
2023-02-02T18:17:58.898Z,98.89
2023-02-02T18:20:25.288Z,99.08
2023-02-02T18:22:51.990Z,98.71
2023-02-02T18:25:18.444Z,98.79
2023-02-02T18:27:45.106Z,98.80
2023-02-02T18:30:13.595Z,98.87
2023-02-02T18:32:41.498Z,98.79
2023-02-02T18:35:10.497Z,98.75
2023-02-02T18:37:37.899Z,98.70
2023-02-02T18:40:05.237Z,98.83
2023-02-02T18:42:33.060Z,98.72
2023-02-02T18:45:00.425Z,98.69
2023-02-02T18:47:27.630Z,98.86
2023-02-02T18:49:54.062Z,98.61
2023-02-02T18:52:20.801Z,98.85
2023-02-02T18:54:47.591Z,98.64
2023-02-02T18:57:14.495Z,98.70
2023-02-02T18:59:41.533Z,98.76
2023-02-02T19:02:12.646Z,98.79
2023-02-02T19:04:38.985Z,98.95
2023-02-02T19:07:23.890Z,98.76
2023-02-02T19:09:50.242Z,98.60
2023-02-02T19:12:16.646Z,98.62
2023-02-02T19:14:43.220Z,98.39
2023-02-02T19:17:12.501Z,98.45
2023-02-02T19:19:40.499Z,98.53
2023-02-02T19:22:17.244Z,98.36
2023-02-02T19:24:43.699Z,98.42
2023-02-02T19:27:21.522Z,98.40
2023-02-02T19:29:53.681Z,98.33
2023-02-02T19:32:22.923Z,98.28
2023-02-02T19:34:52.403Z,98.34
2023-02-02T19:37:27.881Z,98.41
2023-02-02T19:40:15.555Z,98.46
2023-02-02T19:42:51.328Z,98.31
2023-02-02T19:45:28.267Z,98.64
2023-02-02T19:48:00.156Z,98.67
2023-02-02T19:50:29.683Z,98.56
2023-02-02T19:52:56.333Z,98.65
2023-02-02T19:55:28.529Z,98.54
2023-02-02T19:58:01.109Z,98.50
2023-02-02T20:00:31.212Z,98.49
2023-02-02T20:02:59.066Z,98.58
2023-02-02T20:05:32.456Z,98.55
2023-02-02T20:08:14.476Z,98.58
2023-02-02T20:10:43.481Z,98.66
2023-02-02T20:13:23.524Z,98.71
2023-02-02T20:15:51.945Z,98.58
2023-02-02T20:18:26.712Z,98.63
2023-02-02T20:20:56.929Z,98.70
2023-02-02T20:23:29.610Z,98.64
2023-02-02T20:25:57.463Z,98.85
2023-02-02T20:28:37.941Z,98.78
2023-02-02T20:31:05.407Z,98.81
2023-02-02T20:33:33.139Z,98.84
2023-02-02T20:36:02.483Z,98.77
2023-02-02T20:38:38.075Z,98.57
2023-02-02T20:41:05.789Z,98.93
2023-02-02T20:43:32.193Z,98.71
2023-02-02T20:45:58.586Z,98.96
2023-02-02T20:48:25.624Z,98.87
2023-02-02T20:50:52.032Z,98.88
2023-02-02T20:53:18.386Z,98.90
2023-02-02T20:55:44.908Z,98.71
2023-02-02T20:58:11.683Z,99.04
2023-02-02T21:00:38.934Z,98.97
2023-02-02T21:03:05.293Z,98.98
2023-02-02T21:05:31.667Z,98.75
2023-02-02T21:07:58.012Z,98.99
2023-02-02T21:10:26.240Z,98.73
2023-02-02T21:12:52.867Z,98.65
2023-02-02T21:15:19.312Z,98.58
2023-02-02T21:17:45.810Z,98.40
2023-02-02T21:20:13.567Z,98.58
2023-02-02T21:22:40.046Z,98.48
2023-02-02T21:25:06.853Z,98.51
2023-02-02T21:27:33.189Z,98.28
2023-02-02T21:29:59.563Z,98.27
2023-02-02T21:32:25.889Z,98.26
2023-02-02T21:34:52.241Z,98.45
2023-02-02T21:37:18.588Z,98.14
2023-02-02T21:39:49.479Z,98.23
2023-02-02T21:42:18.441Z,98.28
2023-02-02T21:44:49.563Z,98.00
2023-02-02T21:47:21.829Z,98.36
2023-02-02T21:49:48.357Z,97.94
2023-02-02T21:52:17.263Z,97.95
2023-02-02T21:54:44.338Z,97.88
2023-02-02T21:57:35.918Z,98.07
2023-02-02T22:00:22.410Z,98.08
2023-02-02T22:02:50.999Z,97.73
2023-02-02T22:05:21.830Z,97.87
2023-02-02T22:07:50.245Z,97.89
2023-02-02T22:10:30.391Z,97.51
2023-02-02T22:12:56.932Z,97.57
2023-02-02T22:15:27.255Z,97.44
2023-02-02T22:17:53.647Z,97.34
2023-02-02T22:20:34.550Z,97.38
2023-02-02T22:23:02.122Z,97.04
2023-02-02T22:25:34.319Z,96.94
2023-02-02T22:28:16.659Z,96.79
2023-02-02T22:30:43.336Z,96.59
2023-02-02T22:33:12.332Z,96.63
2023-02-02T22:35:39.386Z,96.61
2023-02-02T22:38:06.345Z,96.59
2023-02-02T22:40:32.678Z,96.61
2023-02-02T22:43:01.276Z,96.48
2023-02-02T22:45:28.237Z,96.17
2023-02-02T22:47:54.807Z,96.18
2023-02-02T22:50:26.996Z,96.11
2023-02-02T22:52:53.966Z,95.96
2023-02-02T22:55:20.700Z,95.96
2023-02-02T22:57:47.242Z,95.71
2023-02-02T23:00:16.717Z,95.77
2023-02-02T23:02:43.277Z,95.90
2023-02-02T23:05:12.456Z,95.96
2023-02-02T23:07:39.519Z,95.72
2023-02-02T23:10:07.665Z,95.71
2023-02-02T23:12:34.586Z,95.62
2023-02-02T23:15:00.913Z,95.62
2023-02-02T23:17:27.268Z,95.45
2023-02-02T23:19:53.654Z,95.33
2023-02-02T23:22:20.036Z,95.33
2023-02-02T23:24:46.405Z,95.30
2023-02-02T23:27:13.012Z,95.39
2023-02-02T23:29:39.722Z,95.32
2023-02-02T23:32:07.068Z,95.42
2023-02-02T23:34:33.656Z,95.15
2023-02-02T23:37:00.010Z,95.32
2023-02-02T23:39:26.335Z,95.20
2023-02-02T23:41:52.680Z,95.22
2023-02-02T23:44:19.008Z,95.09
2023-02-02T23:46:45.553Z,94.88
2023-02-02T23:49:11.957Z,94.74
2023-02-02T23:51:38.688Z,95.02
2023-02-02T23:54:05.380Z,95.05
2023-02-02T23:56:31.971Z,95.13
2023-02-02T23:58:58.337Z,95.07
